createdAt,value
2022-11-15T00:02:24.623Z,4.62
2022-11-15T00:05:10.520Z,4.64
2022-11-15T00:07:58.226Z,4.58
2022-11-15T00:10:43.843Z,4.60
2022-11-15T00:13:31.451Z,4.71
2022-11-15T00:16:17.978Z,4.58
2022-11-15T00:19:04.060Z,4.54
2022-11-15T00:21:50.139Z,4.47
2022-11-15T00:24:36.079Z,4.66
2022-11-15T00:27:21.780Z,4.80
2022-11-15T00:30:08.359Z,4.86
2022-11-15T00:32:54.504Z,4.75
2022-11-15T00:35:40.245Z,4.45
2022-11-15T00:38:26.203Z,4.50
2022-11-15T00:41:12.062Z,4.64
2022-11-15T00:43:58.306Z,4.47
2022-11-15T00:46:44.072Z,4.33
2022-11-15T00:49:29.663Z,4.30
2022-11-15T00:52:15.642Z,4.36
2022-11-15T00:55:01.566Z,4.56
2022-11-15T00:57:47.864Z,4.65
2022-11-15T01:00:33.960Z,4.43
2022-11-15T01:03:19.730Z,4.31
2022-11-15T01:06:06.691Z,4.22
2022-11-15T01:08:52.475Z,4.33
2022-11-15T01:11:38.411Z,4.30
2022-11-15T01:14:25.742Z,4.33
2022-11-15T01:17:11.968Z,4.20
2022-11-15T01:19:57.877Z,4.20
2022-11-15T01:22:43.788Z,4.13
2022-11-15T01:25:29.719Z,4.12
2022-11-15T01:28:15.791Z,4.07
2022-11-15T01:31:06.650Z,4.11
2022-11-15T01:33:52.515Z,4.08
2022-11-15T01:36:38.219Z,3.97
2022-11-15T01:39:23.849Z,3.95
2022-11-15T01:42:17.137Z,4.13
2022-11-15T01:45:03.357Z,4.38
2022-11-15T01:47:54.605Z,4.22
2022-11-15T01:50:40.700Z,4.12
2022-11-15T01:53:27.979Z,4.09
2022-11-15T01:56:22.235Z,4.10
2022-11-15T01:59:10.389Z,4.02
2022-11-15T02:01:56.835Z,3.98
2022-11-15T02:04:48.184Z,3.95
2022-11-15T02:07:37.155Z,3.87
2022-11-15T02:10:25.900Z,3.79
2022-11-15T02:13:11.984Z,3.77
2022-11-15T02:16:48.919Z,3.82
2022-11-15T02:19:34.403Z,3.76
2022-11-15T02:23:06.430Z,3.78
2022-11-15T02:26:49.614Z,3.80
2022-11-15T02:30:18.382Z,3.84
2022-11-15T02:33:39.919Z,4.06
2022-11-15T02:36:57.040Z,3.94
2022-11-15T02:40:44.124Z,4.06
2022-11-15T02:44:16.560Z,4.18
2022-11-15T02:47:13.666Z,4.12
2022-11-15T02:50:07.460Z,4.08
2022-11-15T02:52:54.319Z,4.05
2022-11-15T02:55:48.224Z,4.09
2022-11-15T02:59:24.817Z,4.10
2022-11-15T03:02:43.397Z,4.07
2022-11-15T03:06:12.194Z,4.10
2022-11-15T03:09:36.764Z,3.99
2022-11-15T03:13:12.607Z,4.09
2022-11-15T03:16:24.939Z,4.38
2022-11-15T03:19:45.738Z,4.29
2022-11-15T03:22:38.088Z,4.42
2022-11-15T03:25:27.895Z,4.57
2022-11-15T03:28:25.101Z,4.48
2022-11-15T03:31:34.075Z,4.48
2022-11-15T03:35:06.687Z,4.42
2022-11-15T03:38:21.304Z,4.41
2022-11-15T03:41:17.602Z,4.26
2022-11-15T03:44:55.832Z,4.21
2022-11-15T03:48:25.268Z,4.33
2022-11-15T03:51:12.160Z,4.38
2022-11-15T03:53:58.282Z,4.44
2022-11-15T03:56:43.998Z,4.45
2022-11-15T03:59:29.768Z,4.55
2022-11-15T04:02:15.734Z,4.46
2022-11-15T04:05:01.552Z,4.44
2022-11-15T04:07:47.534Z,4.47
2022-11-15T04:10:33.132Z,4.60
2022-11-15T04:13:19.096Z,4.47
2022-11-15T04:16:04.943Z,4.62
2022-11-15T04:19:10.693Z,4.55
2022-11-15T04:22:15.170Z,4.53
2022-11-15T04:25:01.079Z,4.51
2022-11-15T04:27:46.929Z,4.54
2022-11-15T04:30:33.078Z,4.69
2022-11-15T04:33:18.716Z,4.83
2022-11-15T04:36:23.940Z,4.73
2022-11-15T04:39:10.483Z,4.59
2022-11-15T04:41:56.549Z,4.60
2022-11-15T04:44:42.524Z,4.68
2022-11-15T04:47:29.069Z,4.92
2022-11-15T04:50:16.208Z,4.90
2022-11-15T04:53:02.107Z,4.85
2022-11-15T04:55:48.267Z,4.89
2022-11-15T04:58:34.729Z,4.90
2022-11-15T05:01:20.694Z,4.92
2022-11-15T05:04:21.468Z,4.99
2022-11-15T05:07:07.291Z,5.14
2022-11-15T05:09:53.017Z,5.08
2022-11-15T05:12:39.070Z,4.99
2022-11-15T05:15:24.695Z,5.06
2022-11-15T05:18:11.036Z,4.98
2022-11-15T05:20:56.829Z,5.01
2022-11-15T05:23:43.175Z,5.05
2022-11-15T05:26:29.130Z,5.12
2022-11-15T05:29:15.109Z,5.15
2022-11-15T05:32:01.088Z,5.31
2022-11-15T05:34:47.477Z,5.43
2022-11-15T05:37:33.625Z,5.30
2022-11-15T05:40:19.204Z,5.27
2022-11-15T05:43:06.354Z,5.40
2022-11-15T05:45:52.168Z,5.57
2022-11-15T05:48:40.470Z,5.60
2022-11-15T05:51:29.871Z,5.63
2022-11-15T05:54:17.279Z,5.67
2022-11-15T05:57:05.136Z,5.61
2022-11-15T05:59:51.801Z,5.61
2022-11-15T06:02:37.654Z,5.55
2022-11-15T06:05:23.415Z,5.52
2022-11-15T06:08:09.413Z,5.50
2022-11-15T06:10:55.166Z,5.45
2022-11-15T06:13:40.895Z,5.45
2022-11-15T06:16:26.780Z,5.46
2022-11-15T06:19:12.437Z,5.48
2022-11-15T06:22:02.595Z,5.57
2022-11-15T06:24:48.928Z,5.46
2022-11-15T06:27:35.723Z,5.54
2022-11-15T06:30:23.079Z,5.58
2022-11-15T06:33:09.801Z,5.55
2022-11-15T06:35:56.042Z,5.59
2022-11-15T06:38:41.824Z,5.62
2022-11-15T06:41:27.725Z,5.62
2022-11-15T06:44:13.352Z,5.54
2022-11-15T06:46:59.300Z,5.63
2022-11-15T06:49:45.252Z,5.64
2022-11-15T06:52:33.495Z,5.67
2022-11-15T06:55:19.455Z,5.72
2022-11-15T06:58:05.526Z,5.82
2022-11-15T07:00:51.495Z,5.81
2022-11-15T07:03:41.163Z,5.78
2022-11-15T07:06:27.079Z,5.79
2022-11-15T07:09:12.763Z,5.94
2022-11-15T07:12:02.015Z,5.96
2022-11-15T07:14:50.790Z,5.92
2022-11-15T07:17:36.429Z,5.94
2022-11-15T07:20:22.019Z,6.05
2022-11-15T07:23:08.037Z,6.01
2022-11-15T07:25:53.685Z,6.04
2022-11-15T07:28:39.930Z,6.07
2022-11-15T07:31:26.430Z,6.08
2022-11-15T07:34:12.385Z,6.14
2022-11-15T07:36:58.456Z,6.19
2022-11-15T07:39:44.992Z,6.33
2022-11-15T07:42:51.309Z,6.35
2022-11-15T07:45:45.672Z,6.35
2022-11-15T07:48:43.478Z,6.32
2022-11-15T07:51:30.350Z,6.32
2022-11-15T07:54:15.939Z,6.34
2022-11-15T07:57:06.888Z,6.39
2022-11-15T07:59:53.333Z,6.49
2022-11-15T08:02:39.122Z,6.46
2022-11-15T08:05:24.640Z,6.57
2022-11-15T08:08:12.084Z,6.65
2022-11-15T08:11:01.652Z,6.72
2022-11-15T08:13:47.435Z,6.80
2022-11-15T08:16:33.707Z,6.82
2022-11-15T08:19:19.780Z,6.79
2022-11-15T08:22:05.496Z,6.83
2022-11-15T08:24:51.379Z,6.88
2022-11-15T08:27:37.291Z,6.95
2022-11-15T08:30:23.984Z,7.02
2022-11-15T08:33:15.114Z,7.04
2022-11-15T08:36:01.970Z,7.05
2022-11-15T08:38:47.920Z,7.04
2022-11-15T08:41:38.375Z,7.06
2022-11-15T08:44:25.053Z,7.14
2022-11-15T08:47:14.587Z,7.16
2022-11-15T08:50:00.781Z,7.19
2022-11-15T08:52:49.071Z,7.23
2022-11-15T08:55:38.879Z,7.34
2022-11-15T08:58:25.082Z,7.42
2022-11-15T09:01:21.493Z,7.47
2022-11-15T09:04:07.347Z,7.47
2022-11-15T09:06:53.295Z,7.54
2022-11-15T09:09:39.855Z,7.58
2022-11-15T09:12:26.748Z,7.60
2022-11-15T09:15:12.547Z,7.51
2022-11-15T09:18:01.124Z,7.52
2022-11-15T09:20:48.317Z,7.56
2022-11-15T09:23:34.439Z,7.55
2022-11-15T09:26:20.632Z,7.43
2022-11-15T09:29:06.830Z,7.56
2022-11-15T09:31:55.540Z,7.40
2022-11-15T09:34:41.506Z,7.59
2022-11-15T09:37:27.464Z,7.50
2022-11-15T09:40:17.408Z,7.69
2022-11-15T09:43:18.248Z,7.80
2022-11-15T09:46:19.775Z,7.72
2022-11-15T09:49:10.272Z,7.68
2022-11-15T09:52:02.149Z,7.76
2022-11-15T09:54:53.191Z,7.82
2022-11-15T09:57:53.432Z,7.78
2022-11-15T10:00:47.176Z,7.92
2022-11-15T10:03:36.367Z,8.04
2022-11-15T10:06:07.194Z,8.07
2022-11-15T10:09:39.658Z,7.96
2022-11-15T10:12:10.648Z,7.95
2022-11-15T10:14:38.226Z,7.91
2022-11-15T10:17:36.486Z,7.93
2022-11-15T10:20:23.545Z,7.76
2022-11-15T10:23:01.008Z,7.70
2022-11-15T10:25:35.138Z,7.62
2022-11-15T10:28:12.987Z,7.59
2022-11-15T10:30:50.187Z,7.62
2022-11-15T10:33:38.790Z,7.58
2022-11-15T10:36:10.729Z,7.65
2022-11-15T10:38:50.140Z,7.69
2022-11-15T10:41:32.037Z,7.77
2022-11-15T10:44:08.305Z,7.79
2022-11-15T10:46:46.706Z,7.70
2022-11-15T10:49:26.733Z,7.64
2022-11-15T10:52:20.096Z,7.67
2022-11-15T10:55:06.619Z,7.81
2022-11-15T10:58:00.495Z,7.85
2022-11-15T11:00:47.740Z,7.98
2022-11-15T11:03:40.474Z,8.01
2022-11-15T11:06:18.394Z,7.80
2022-11-15T11:09:02.183Z,7.69
2022-11-15T11:11:53.316Z,7.78
2022-11-15T11:14:32.389Z,7.82
2022-11-15T11:17:45.915Z,7.86
2022-11-15T11:20:45.722Z,7.93
2022-11-15T11:23:47.143Z,7.95
2022-11-15T11:27:08.944Z,7.93
2022-11-15T11:30:18.156Z,8.01
2022-11-15T11:33:14.164Z,8.05
2022-11-15T11:36:27.787Z,8.10
2022-11-15T11:39:53.837Z,8.06
2022-11-15T11:43:02.455Z,8.13
2022-11-15T11:45:55.949Z,8.07
2022-11-15T11:49:11.888Z,8.06
2022-11-15T11:51:59.829Z,8.10
2022-11-15T11:55:17.761Z,8.10
2022-11-15T11:58:14.314Z,8.03
2022-11-15T12:01:45.142Z,7.99
2022-11-15T12:04:39.984Z,8.03
2022-11-15T12:07:30.632Z,8.08
2022-11-15T12:10:26.184Z,8.16
2022-11-15T12:13:12.687Z,8.21
2022-11-15T12:16:09.079Z,8.22
2022-11-15T12:18:38.704Z,8.16
2022-11-15T12:21:31.404Z,8.16
2022-11-15T12:24:16.620Z,8.15
2022-11-15T12:27:12.784Z,8.15
2022-11-15T12:29:54.893Z,8.13
2022-11-15T12:32:35.769Z,8.10
2022-11-15T12:35:20.808Z,8.10
2022-11-15T12:37:51.109Z,8.03
2022-11-15T12:40:30.964Z,8.01
2022-11-15T12:43:36.162Z,8.08
2022-11-15T12:46:06.470Z,8.09
2022-11-15T12:48:36.597Z,8.05
2022-11-15T12:51:04.809Z,8.00
2022-11-15T12:53:35.897Z,8.01
2022-11-15T12:56:17.845Z,7.97
2022-11-15T12:59:03.282Z,7.96
2022-11-15T13:01:36.402Z,7.98
2022-11-15T13:04:25.680Z,8.05
2022-11-15T13:07:08.580Z,8.04
2022-11-15T13:09:38.226Z,8.12
2022-11-15T13:12:47.228Z,8.10
2022-11-15T13:15:14.351Z,8.05
2022-11-15T13:17:54.078Z,8.02
2022-11-15T13:20:31.576Z,8.05
2022-11-15T13:23:11.680Z,8.11
2022-11-15T13:26:12.826Z,8.11
2022-11-15T13:28:50.508Z,8.10
2022-11-15T13:31:42.401Z,8.09
2022-11-15T13:34:51.027Z,8.15
2022-11-15T13:37:22.289Z,8.19
2022-11-15T13:39:50.769Z,8.21
2022-11-15T13:42:22.368Z,8.28
2022-11-15T13:45:01.826Z,8.29
2022-11-15T13:47:32.464Z,8.23
2022-11-15T13:50:01.983Z,8.27
2022-11-15T13:52:38.251Z,8.24
2022-11-15T13:55:20.530Z,8.26
2022-11-15T13:58:06.941Z,8.27
2022-11-15T14:00:46.347Z,8.24
2022-11-15T14:03:28.551Z,8.19
2022-11-15T14:06:16.229Z,8.20
2022-11-15T14:09:10.491Z,8.17
2022-11-15T14:11:38.955Z,8.18
2022-11-15T14:14:08.818Z,8.17
2022-11-15T14:16:43.683Z,8.10
2022-11-15T14:19:35.000Z,8.05
2022-11-15T14:22:15.777Z,8.02
2022-11-15T14:24:46.991Z,8.02
2022-11-15T14:27:30.133Z,8.00
2022-11-15T14:29:57.412Z,8.02
2022-11-15T14:32:44.574Z,8.05
2022-11-15T14:35:22.260Z,8.03
2022-11-15T14:37:50.027Z,7.99
2022-11-15T14:40:22.567Z,8.04
2022-11-15T14:42:50.856Z,8.02
2022-11-15T14:45:23.259Z,7.95
2022-11-15T14:47:50.514Z,7.96
2022-11-15T14:50:21.873Z,8.03
2022-11-15T14:52:49.646Z,8.05
2022-11-15T14:55:26.311Z,8.04
2022-11-15T14:57:53.625Z,8.02
2022-11-15T15:00:22.003Z,8.01
2022-11-15T15:02:53.504Z,8.01
2022-11-15T15:05:44.741Z,7.97
2022-11-15T15:08:13.156Z,7.92
2022-11-15T15:10:46.498Z,7.91
2022-11-15T15:13:25.316Z,7.90
2022-11-15T15:15:53.295Z,7.85
2022-11-15T15:18:21.293Z,7.82
2022-11-15T15:21:07.860Z,7.83
2022-11-15T15:23:36.552Z,7.79
2022-11-15T15:26:04.042Z,7.78
2022-11-15T15:28:34.635Z,7.79
2022-11-15T15:31:03.290Z,7.84
2022-11-15T15:33:30.628Z,7.86
2022-11-15T15:35:57.928Z,7.88
2022-11-15T15:38:25.368Z,7.86
2022-11-15T15:40:52.695Z,7.78
2022-11-15T15:43:21.529Z,7.80
2022-11-15T15:45:48.669Z,7.81
2022-11-15T15:48:18.131Z,7.86
2022-11-15T15:50:46.236Z,7.83
2022-11-15T15:53:14.503Z,7.82
2022-11-15T15:55:42.129Z,7.77
2022-11-15T15:58:09.600Z,7.73
2022-11-15T16:00:37.891Z,7.71
2022-11-15T16:03:05.067Z,7.72
2022-11-15T16:05:32.437Z,7.71
2022-11-15T16:07:59.601Z,7.70
2022-11-15T16:10:37.009Z,7.70
2022-11-15T16:13:04.315Z,7.73
2022-11-15T16:15:32.949Z,7.76
2022-11-15T16:18:02.688Z,7.77
2022-11-15T16:20:43.475Z,7.79
2022-11-15T16:23:18.912Z,7.76
2022-11-15T16:25:50.605Z,7.79
2022-11-15T16:28:32.984Z,7.76
2022-11-15T16:31:13.198Z,7.71
2022-11-15T16:33:41.278Z,7.69
2022-11-15T16:36:30.386Z,7.76
2022-11-15T16:38:59.651Z,7.74
2022-11-15T16:41:27.065Z,7.69
2022-11-15T16:43:54.374Z,7.70
2022-11-15T16:46:29.888Z,7.70
2022-11-15T16:48:57.456Z,7.71
2022-11-15T16:51:25.436Z,7.74
2022-11-15T16:53:52.798Z,7.73
2022-11-15T16:56:30.762Z,7.73
2022-11-15T16:59:00.660Z,7.68
2022-11-15T17:01:33.690Z,7.70
2022-11-15T17:04:12.700Z,7.66
2022-11-15T17:06:43.332Z,7.67
2022-11-15T17:09:21.337Z,7.68
2022-11-15T17:11:48.577Z,7.65
2022-11-15T17:14:17.816Z,7.59
2022-11-15T17:16:45.447Z,7.58
2022-11-15T17:19:21.355Z,7.68
2022-11-15T17:21:49.642Z,7.72
2022-11-15T17:24:17.713Z,7.67
2022-11-15T17:26:45.060Z,7.62
2022-11-15T17:29:12.329Z,7.62
2022-11-15T17:31:39.682Z,7.64
2022-11-15T17:34:07.821Z,7.65
2022-11-15T17:36:35.878Z,7.67
2022-11-15T17:39:04.809Z,7.65
2022-11-15T17:41:32.499Z,7.64
2022-11-15T17:44:01.900Z,7.68
2022-11-15T17:46:30.271Z,7.65
2022-11-15T17:48:58.448Z,7.63
2022-11-15T17:51:26.284Z,7.64
2022-11-15T17:53:53.907Z,7.64
2022-11-15T17:56:25.082Z,7.64
2022-11-15T17:59:00.695Z,7.65
2022-11-15T18:01:33.793Z,7.63
2022-11-15T18:04:04.891Z,7.60
2022-11-15T18:06:34.606Z,7.60
2022-11-15T18:09:04.078Z,7.58
2022-11-15T18:11:39.268Z,7.58
2022-11-15T18:14:16.590Z,7.56
2022-11-15T18:16:44.045Z,7.56
2022-11-15T18:19:13.612Z,7.57
2022-11-15T18:21:57.925Z,7.53
2022-11-15T18:24:35.301Z,7.55
2022-11-15T18:27:05.901Z,7.55
2022-11-15T18:29:34.572Z,7.56
2022-11-15T18:32:04.953Z,7.61
2022-11-15T18:34:33.992Z,7.64
2022-11-15T18:37:26.988Z,7.63
2022-11-15T18:39:54.382Z,7.64
2022-11-15T18:42:21.842Z,7.61
2022-11-15T18:44:49.263Z,7.58
2022-11-15T18:47:16.622Z,7.52
2022-11-15T18:49:44.478Z,7.48
2022-11-15T18:52:11.678Z,7.55
2022-11-15T18:54:38.968Z,7.58
2022-11-15T18:57:06.229Z,7.60
2022-11-15T18:59:33.409Z,7.60
2022-11-15T19:02:00.570Z,7.60
2022-11-15T19:04:28.017Z,7.56
2022-11-15T19:06:55.484Z,7.53
2022-11-15T19:09:27.138Z,7.58
2022-11-15T19:11:55.387Z,7.60
2022-11-15T19:14:24.408Z,7.60
2022-11-15T19:16:52.806Z,7.54
2022-11-15T19:19:28.284Z,7.51
2022-11-15T19:21:57.414Z,7.52
2022-11-15T19:24:27.206Z,7.51
2022-11-15T19:26:54.972Z,7.58
2022-11-15T19:29:22.226Z,7.61
2022-11-15T19:31:49.533Z,7.64
2022-11-15T19:34:17.872Z,7.65
2022-11-15T19:36:46.189Z,7.66
2022-11-15T19:39:17.939Z,7.67
2022-11-15T19:41:46.394Z,7.68
2022-11-15T19:44:14.365Z,7.68
2022-11-15T19:46:42.257Z,7.71
2022-11-15T19:49:11.153Z,7.71
2022-11-15T19:51:42.366Z,7.71
2022-11-15T19:54:10.488Z,7.70
2022-11-15T19:56:39.890Z,7.69
2022-11-15T19:59:07.884Z,7.72
2022-11-15T20:01:38.808Z,7.78
2022-11-15T20:04:09.826Z,7.77
2022-11-15T20:06:42.246Z,7.71
2022-11-15T20:09:15.801Z,7.66
2022-11-15T20:11:43.198Z,7.66
2022-11-15T20:14:12.800Z,7.66
2022-11-15T20:16:40.428Z,7.63
2022-11-15T20:19:08.785Z,7.61
2022-11-15T20:21:36.242Z,7.57
2022-11-15T20:24:04.830Z,7.56
2022-11-15T20:26:32.336Z,7.58
2022-11-15T20:29:01.207Z,7.62
2022-11-15T20:31:30.148Z,7.61
2022-11-15T20:33:57.719Z,7.64
2022-11-15T20:36:25.096Z,7.65
2022-11-15T20:38:56.745Z,7.61
2022-11-15T20:41:25.542Z,7.65
2022-11-15T20:43:52.846Z,7.70
2022-11-15T20:46:21.584Z,7.70
2022-11-15T20:48:48.869Z,7.68
2022-11-15T20:51:20.101Z,7.69
2022-11-15T20:53:48.243Z,7.66
2022-11-15T20:56:21.948Z,7.67
2022-11-15T20:58:51.311Z,7.65
2022-11-15T21:01:23.710Z,7.63
2022-11-15T21:03:56.840Z,7.65
2022-11-15T21:06:26.755Z,7.67
2022-11-15T21:09:13.883Z,7.61
2022-11-15T21:12:00.537Z,7.68
2022-11-15T21:14:27.840Z,7.72
2022-11-15T21:16:55.296Z,7.70
2022-11-15T21:19:28.799Z,7.68
2022-11-15T21:21:58.963Z,7.68
2022-11-15T21:24:26.539Z,7.63
2022-11-15T21:26:55.569Z,7.65
2022-11-15T21:29:23.186Z,7.64
2022-11-15T21:31:53.322Z,7.68
2022-11-15T21:34:22.401Z,7.67
2022-11-15T21:36:49.683Z,7.60
2022-11-15T21:39:17.018Z,7.56
2022-11-15T21:41:44.414Z,7.55
2022-11-15T21:44:12.080Z,7.52
2022-11-15T21:46:39.721Z,7.56
2022-11-15T21:49:07.778Z,7.60
2022-11-15T21:51:36.178Z,7.57
2022-11-15T21:54:03.856Z,7.63
2022-11-15T21:56:32.286Z,7.68
2022-11-15T21:59:00.007Z,7.65
2022-11-15T22:01:47.047Z,7.67
2022-11-15T22:04:15.641Z,7.66
2022-11-15T22:06:42.971Z,7.69
2022-11-15T22:09:10.210Z,7.71
2022-11-15T22:11:37.532Z,7.69
2022-11-15T22:14:05.128Z,7.69
2022-11-15T22:16:33.144Z,7.66
2022-11-15T22:19:00.496Z,7.64
2022-11-15T22:21:27.907Z,7.63
2022-11-15T22:23:55.192Z,7.65
2022-11-15T22:26:24.065Z,7.67
2022-11-15T22:28:51.642Z,7.68
2022-11-15T22:31:19.189Z,7.63
2022-11-15T22:33:47.057Z,7.67
2022-11-15T22:36:14.851Z,7.67
2022-11-15T22:38:42.162Z,7.68
2022-11-15T22:41:09.719Z,7.70
2022-11-15T22:43:37.282Z,7.69
2022-11-15T22:46:05.801Z,7.76
2022-11-15T22:48:39.072Z,7.71
2022-11-15T22:51:07.757Z,7.74
2022-11-15T22:53:35.102Z,7.78
2022-11-15T22:56:06.913Z,7.72
2022-11-15T22:58:35.048Z,7.69
2022-11-15T23:01:05.443Z,7.63
2022-11-15T23:03:34.143Z,7.61
2022-11-15T23:06:08.141Z,7.71
2022-11-15T23:08:35.932Z,7.78
2022-11-15T23:11:23.674Z,7.80
2022-11-15T23:13:52.382Z,7.79
2022-11-15T23:16:25.849Z,7.72
2022-11-15T23:18:57.573Z,7.70
2022-11-15T23:21:57.330Z,7.67
2022-11-15T23:24:25.914Z,7.72
2022-11-15T23:27:00.717Z,7.70
2022-11-15T23:29:29.223Z,7.65
2022-11-15T23:32:15.843Z,7.68
2022-11-15T23:34:45.991Z,7.70
2022-11-15T23:37:15.758Z,7.74
2022-11-15T23:39:43.166Z,7.75
2022-11-15T23:42:19.540Z,7.76
2022-11-15T23:44:49.876Z,7.76
2022-11-15T23:47:18.882Z,7.79
2022-11-15T23:49:46.434Z,7.69
2022-11-15T23:52:15.414Z,7.66
2022-11-15T23:54:42.888Z,7.72
2022-11-15T23:57:11.985Z,7.75
2022-11-15T23:59:45.727Z,7.69
